Time;durP1;ratioP1;P1;durP2;ratioP2;P2;SDS_P1;SDS_P2;PMS_P1;PMS_P2;Temp;Humidity;BMP_temperature;BMP_pressure;BME280_temperature;BME280_humidity;BME280_pressure;Samples;Min_cycle;Max_cycle;Signal;HPM_P1;HPM_P2
2023/01/18 00:02:06;;;;;;;24.23;8.38;;;;;;;-3.22;95.85;98487.13;4934230;29;20055;-66
2023/01/18 00:04:33;;;;;;;22.42;9.05;;;;;;;-3.23;96.29;98488.13;4918875;29;20051;-67
2023/01/18 00:06:59;;;;;;;19.38;8.02;;;;;;;-3.18;95.90;98478.06;4934884;29;20052;-66
2023/01/18 00:09:26;;;;;;;25.63;8.68;;;;;;;-3.21;96.16;98473.06;4934607;29;20131;-66
2023/01/18 00:11:52;;;;;;;18.33;10.05;;;;;;;-3.25;96.23;98471.66;4930653;29;20046;-67
2023/01/18 00:14:19;;;;;;;22.45;10.82;;;;;;;-3.29;97.10;98471.09;4934266;29;20063;-66
2023/01/18 00:16:45;;;;;;;25.33;9.25;;;;;;;-3.34;97.08;98468.03;4934605;29;20099;-67
2023/01/18 00:19:12;;;;;;;22.50;9.25;;;;;;;-3.32;97.18;98460.84;4933896;29;20038;-67
2023/01/18 00:21:39;;;;;;;24.67;9.77;;;;;;;-3.31;97.29;98458.13;4933655;29;20087;-66
2023/01/18 00:24:09;;;;;;;29.23;10.27;;;;;;;-3.35;97.40;98451.44;4933985;29;20060;-66
2023/01/18 00:26:36;;;;;;;17.60;9.20;;;;;;;-3.34;97.97;98447.88;4933240;29;20116;-67
2023/01/18 00:29:03;;;;;;;21.08;9.35;;;;;;;-3.33;97.38;98460.03;4932148;29;20042;-67
2023/01/18 00:31:30;;;;;;;19.27;9.18;;;;;;;-3.32;97.46;98451.19;4932078;29;20063;-67
2023/01/18 00:33:57;;;;;;;21.10;9.18;;;;;;;-3.30;97.37;98458.94;4931046;29;20067;-66
2023/01/18 00:36:23;;;;;;;22.30;9.50;;;;;;;-3.33;97.56;98454.78;4931419;29;20143;-66
2023/01/18 00:38:51;;;;;;;18.38;8.57;;;;;;;-3.25;97.41;98456.75;4931479;29;20116;-68
2023/01/18 00:41:19;;;;;;;19.88;8.98;;;;;;;-3.21;97.30;98458.16;4931707;29;20107;-67
2023/01/18 00:43:45;;;;;;;21.38;10.00;;;;;;;-3.20;96.60;98456.41;4931710;29;20055;-67
2023/01/18 00:46:15;;;;;;;27.55;8.98;;;;;;;-3.17;96.47;98458.72;4931342;29;20126;-67
2023/01/18 00:48:42;;;;;;;19.48;9.40;;;;;;;-3.19;97.08;98464.13;4931835;29;20130;-66
2023/01/18 00:51:12;;;;;;;21.52;9.70;;;;;;;-3.21;97.35;98462.56;4932354;29;20048;-66
2023/01/18 00:53:40;;;;;;;29.90;10.18;;;;;;;-3.22;97.03;98460.91;4933490;29;20048;-66
2023/01/18 00:56:08;;;;;;;23.08;9.35;;;;;;;-3.23;97.24;98473.19;4931047;29;20044;-66
2023/01/18 00:58:36;;;;;;;17.70;8.57;;;;;;;-3.24;97.47;98470.69;4931734;29;20066;-66
2023/01/18 01:01:05;;;;;;;19.55;9.15;;;;;;;-3.25;97.22;98466.41;4931392;29;20044;-66
2023/01/18 01:09:19;;;;;;;;;;;;;;;-3.15;96.98;98489.13;4931456;29;20048;-66
2023/01/18 01:28:23;;;;;;;21.85;9.75;;;;;;;-3.17;96.77;98521.66;4935635;29;20060;-66
2023/01/18 01:30:49;;;;;;;21.08;8.18;;;;;;;-3.17;97.34;98521.66;4935309;29;20068;-67
2023/01/18 01:33:16;;;;;;;19.23;9.20;;;;;;;-3.15;96.75;98531.09;4935205;29;20071;-66
2023/01/18 01:35:43;;;;;;;24.45;8.80;;;;;;;-3.13;96.97;98537.06;4935643;29;20048;-67
2023/01/18 01:38:09;;;;;;;19.98;8.27;;;;;;;-3.13;97.13;98538.84;4934682;29;20052;-66
2023/01/18 01:40:36;;;;;;;18.85;8.23;;;;;;;-3.12;96.78;98540.50;4934592;29;20068;-67
2023/01/18 01:43:02;;;;;;;29.23;8.77;;;;;;;-3.11;96.86;98537.72;4934158;29;20059;-67
2023/01/18 01:45:30;;;;;;;33.85;9.68;;;;;;;-3.15;96.98;98525.00;4934500;29;20120;-66
2023/01/18 01:47:58;;;;;;;26.33;9.02;;;;;;;-3.12;97.00;98535.25;4924655;29;20048;-66
2023/01/18 01:50:30;;;;;;;17.10;8.45;;;;;;;-3.11;96.83;98540.34;4934677;29;20115;-66
2023/01/18 01:52:57;;;;;;;21.25;8.95;;;;;;;-3.13;97.13;98552.78;4934384;29;20048;-66
2023/01/18 01:55:29;;;;;;;21.23;8.32;;;;;;;-3.07;96.69;98544.38;4934507;29;20139;-66
2023/01/18 01:57:59;;;;;;;;;;;;;;;-3.07;97.04;98540.94;4925831;29;20055;-67
2023/01/18 02:00:26;;;;;;;26.33;8.57;;;;;;;-3.08;96.68;98547.97;4931722;29;19974;-67
2023/01/18 02:02:59;;;;;;;24.58;8.73;;;;;;;-3.03;96.24;98565.97;4934855;29;20117;-67
2023/01/18 02:09:13;;;;;;;21.52;10.18;;;;;;;-3.09;96.10;98561.22;4934015;29;20074;-67
2023/01/18 02:11:41;;;;;;;25.63;10.93;;;;;;;-3.01;96.51;98568.47;4933311;29;20048;-68
2023/01/18 02:14:11;;;;;;;29.30;11.88;;;;;;;-3.13;96.59;98570.31;4934156;29;20105;-67
2023/01/18 02:17:09;;;;;;;30.43;11.43;;;;;;;-3.08;96.51;98568.97;4917735;29;20085;-67
2023/01/18 02:20:00;;;;;;;25.05;12.23;;;;;;;-3.13;96.68;98562.44;4934285;29;20052;-67
2023/01/18 02:22:47;;;;;;;28.77;11.45;;;;;;;-3.15;96.75;98569.59;4934506;29;20044;-66
2023/01/18 02:25:41;;;;;;;28.35;11.73;;;;;;;-3.11;96.72;98563.97;4934928;29;20036;-68
2023/01/18 02:28:09;;;;;;;24.20;10.95;;;;;;;-3.12;96.31;98556.22;4935026;29;20556;-67
2023/01/18 02:31:16;;;;;;;27.45;11.85;;;;;;;-3.20;96.52;98553.41;4934065;29;20079;-67
2023/01/18 02:34:01;;;;;;;24.17;11.27;;;;;;;-3.19;96.60;98555.06;4933031;29;20062;-68
2023/01/18 02:36:37;;;;;;;27.13;10.68;;;;;;;-3.18;96.96;98548.88;4930096;29;20044;-67
2023/01/18 02:39:22;;;;;;;19.80;10.13;;;;;;;-3.20;97.04;98554.25;4928423;29;20048;-67
2023/01/18 02:47:34;;;;;;;27.65;10.77;;;;;;;-3.18;97.34;98552.31;4926392;29;20044;-67
2023/01/18 02:50:02;;;;;;;24.20;11.20;;;;;;;-3.12;96.53;98556.22;4927004;29;20123;-66
2023/01/18 02:52:39;;;;;;;33.78;11.43;;;;;;;-3.07;96.09;98562.75;4928490;29;20490;-66
2023/01/18 02:55:23;;;;;;;26.83;9.43;;;;;;;-3.01;93.42;98561.41;4929142;29;20048;-67
2023/01/18 02:57:53;;;;;;;22.80;8.77;;;;;;;-3.02;93.09;98567.63;4929669;29;20040;-67
2023/01/18 03:00:22;;;;;;;22.70;8.97;;;;;;;-3.09;93.07;98571.72;4930737;29;20072;-67
2023/01/18 03:02:50;;;;;;;24.92;9.98;;;;;;;-3.10;93.72;98570.91;4931670;29;20044;-67
2023/01/18 03:05:18;;;;;;;22.67;9.77;;;;;;;-3.12;93.79;98572.81;4929574;29;20103;-67
2023/01/18 03:07:57;;;;;;;22.30;9.25;;;;;;;-3.09;93.61;98562.06;4929538;29;21094;-67
2023/01/18 03:10:29;;;;;;;20.23;8.82;;;;;;;-3.08;94.04;98563.72;4930278;29;20113;-66
2023/01/18 03:12:58;;;;;;;27.05;9.80;;;;;;;-3.08;93.35;98565.50;4929262;29;20042;-66
2023/01/18 03:15:55;;;;;;;20.58;9.15;;;;;;;-3.08;93.45;98561.09;4929837;29;20072;-67
2023/01/18 03:18:32;;;;;;;21.23;8.93;;;;;;;-3.12;93.90;98562.31;4903463;29;20075;-67
2023/01/18 03:21:04;;;;;;;20.10;9.55;;;;;;;-3.08;93.98;98563.72;4927855;29;20119;-67
2023/01/18 03:23:41;;;;;;;23.27;10.38;;;;;;;-2.97;92.87;98560.19;4928379;29;20561;-66
2023/01/18 03:26:13;;;;;;;25.00;10.00;;;;;;;-2.95;92.56;98558.28;4928684;29;20052;-66
2023/01/18 03:35:06;;;;;;;19.52;9.20;;;;;;;-2.96;92.99;98577.63;4927057;29;20052;-67
2023/01/18 03:37:39;;;;;;;18.38;9.77;;;;;;;-2.96;92.39;98576.78;4927253;29;20077;-67
2023/01/18 03:40:11;;;;;;;24.80;10.57;;;;;;;-3.01;93.06;98574.53;4926879;29;20442;-67
2023/01/18 03:42:50;;;;;;;24.73;11.20;;;;;;;-2.99;93.14;98583.13;4926451;29;20128;-67
2023/01/18 03:45:29;;;;;;;27.65;10.63;;;;;;;-2.95;92.47;98587.16;4928319;29;20063;-67
2023/01/18 03:47:56;;;;;;;29.63;10.13;;;;;;;-2.87;92.46;98579.47;4910242;29;20055;-67
2023/01/18 03:50:30;;;;;;;18.95;9.75;;;;;;;-2.82;91.78;98569.44;4926855;29;20047;-66
2023/01/18 03:53:03;;;;;;;22.92;9.63;;;;;;;-2.92;91.51;98568.53;4927441;29;20050;-68
2023/01/18 03:55:55;;;;;;;23.20;10.30;;;;;;;-2.90;92.31;98573.66;4926677;29;20060;-67
2023/01/18 03:58:31;;;;;;;27.85;10.70;;;;;;;-2.89;92.17;98568.28;4926237;29;20040;-66
2023/01/18 04:00:57;;;;;;;26.83;10.43;;;;;;;-2.95;92.44;98563.53;4909663;29;20048;-67
2023/01/18 04:03:24;;;;;;;20.48;9.90;;;;;;;-2.95;92.42;98568.78;4927499;29;20086;-67
2023/01/18 04:05:51;;;;;;;20.90;9.93;;;;;;;-3.02;93.29;98566.81;4906517;29;20048;-67
2023/01/18 04:08:20;;;;;;;19.40;9.43;;;;;;;-2.96;93.75;98568.91;4908391;29;20119;-66
2023/01/18 04:10:47;;;;;;;20.95;9.40;;;;;;;-2.97;93.82;98567.25;4906419;29;20085;-67
2023/01/18 04:13:13;;;;;;;20.02;9.68;;;;;;;-3.01;93.17;98568.47;4908660;29;20478;-67
2023/01/18 04:15:40;;;;;;;22.45;9.50;;;;;;;-2.95;93.40;98573.22;4908352;29;20076;-67
2023/01/18 04:18:06;;;;;;;23.73;9.30;;;;;;;-2.95;93.09;98566.16;4908877;29;20067;-66
2023/01/18 04:20:33;;;;;;;21.95;8.90;;;;;;;-2.94;92.36;98569.63;4908184;29;20064;-67
2023/01/18 04:23:00;;;;;;;19.20;8.48;;;;;;;-2.96;92.59;98580.25;4908822;29;20510;-67
2023/01/18 04:25:26;;;;;;;18.77;7.97;;;;;;;-2.99;92.71;98580.50;4910187;29;20405;-67
2023/01/18 04:27:53;;;;;;;19.10;8.25;;;;;;;-2.95;92.28;98576.66;4908039;29;20096;-67
2023/01/18 04:30:20;;;;;;;16.27;8.07;;;;;;;-2.95;92.08;98566.16;4907521;29;20056;-68
2023/01/18 04:32:46;;;;;;;19.85;8.70;;;;;;;-2.92;91.65;98568.53;4908492;29;20079;-67
2023/01/18 04:35:13;;;;;;;16.35;7.70;;;;;;;-2.92;91.59;98567.72;4905255;29;20045;-68
2023/01/18 04:37:40;;;;;;;21.88;7.95;;;;;;;-2.97;91.19;98575.94;4907620;29;20075;-67
2023/01/18 04:40:07;;;;;;;17.27;7.30;;;;;;;-2.98;91.40;98563.78;4906386;29;20112;-67
2023/01/18 04:42:34;;;;;;;16.90;7.47;;;;;;;-2.95;91.29;98567.97;4906966;29;20068;-68
2023/01/18 04:45:00;;;;;;;19.20;7.40;;;;;;;-2.90;91.19;98571.84;4907007;29;20056;-68
2023/01/18 04:47:27;;;;;;;28.17;8.35;;;;;;;-2.87;90.96;98576.84;4906587;29;20048;-67
2023/01/18 04:49:57;;;;;;;16.33;6.50;;;;;;;-2.84;90.39;98578.41;4905575;29;20469;-67
2023/01/18 04:52:25;;;;;;;18.00;5.70;;;;;;;-2.88;89.49;98590.94;4908456;29;20462;-68
2023/01/18 04:54:52;;;;;;;14.73;5.68;;;;;;;-2.84;88.84;98573.16;4909693;29;20048;-66
2023/01/18 04:57:18;;;;;;;11.57;5.65;;;;;;;-2.86;88.36;98581.16;4911044;29;20063;-67
2023/01/18 04:59:45;;;;;;;15.38;5.95;;;;;;;-2.79;88.45;98578.00;4912005;29;20052;-67
2023/01/18 05:02:13;;;;;;;14.23;4.80;;;;;;;-2.78;87.91;98579.69;4910190;29;20056;-67
2023/01/18 05:04:40;;;;;;;13.77;5.00;;;;;;;-2.77;87.02;98576.09;4910297;29;20474;-67
2023/01/18 05:07:07;;;;;;;13.05;5.40;;;;;;;-2.76;87.24;98588.25;4910066;29;20100;-67
2023/01/18 05:09:33;;;;;;;13.60;4.80;;;;;;;-2.78;86.47;98583.13;4909901;29;20054;-66
2023/01/18 05:12:00;;;;;;;14.80;4.95;;;;;;;-2.65;85.56;98594.28;4910163;29;20137;-66
2023/01/18 05:14:27;;;;;;;11.38;4.60;;;;;;;-2.62;84.78;98594.00;4910126;29;20052;-66
2023/01/18 05:16:53;;;;;;;16.13;5.93;;;;;;;-2.60;84.42;98599.97;4910769;29;20423;-67
2023/01/18 05:19:20;;;;;;;9.55;4.97;;;;;;;-2.51;84.66;98601.00;4909448;29;20045;-67
2023/01/18 05:21:46;;;;;;;18.90;5.70;;;;;;;-2.48;84.25;98608.59;4908613;29;20064;-67
2023/01/18 05:24:13;;;;;;;19.30;5.88;;;;;;;-2.54;84.20;98603.88;4908259;29;20048;-68
2023/01/18 05:26:39;;;;;;;11.73;5.10;;;;;;;-2.51;84.95;98602.78;4907677;29;20055;-67
2023/01/18 05:29:06;;;;;;;12.80;4.78;;;;;;;-2.61;85.75;98607.97;4905971;29;20075;-69
2023/01/18 05:31:52;;;;;;;16.83;5.47;;;;;;;-2.65;86.24;98604.78;5054859;27;20252;-67
2023/01/18 05:34:18;;;;;;;14.45;5.80;;;;;;;-2.61;86.00;98608.81;5059254;28;20045;-68
2023/01/18 05:36:46;;;;;;;11.60;5.00;;;;;;;-2.59;85.86;98612.13;5060950;28;20068;-66
2023/01/18 05:39:13;;;;;;;11.38;4.90;;;;;;;-2.62;85.78;98614.16;5060480;28;20537;-67
2023/01/18 05:41:39;;;;;;;10.25;4.97;;;;;;;-2.56;86.00;98624.16;5059087;28;20045;-67
2023/01/18 05:44:06;;;;;;;16.48;5.70;;;;;;;-2.53;85.49;98620.47;5059949;28;20065;-66
2023/01/18 05:46:32;;;;;;;15.00;6.15;;;;;;;-2.48;85.73;98626.97;5059737;28;20211;-67
2023/01/18 05:48:58;;;;;;;14.30;4.85;;;;;;;-2.49;85.85;98630.56;5061329;28;20049;-67
2023/01/18 05:51:25;;;;;;;21.58;5.10;;;;;;;-2.47;85.14;98626.03;5059802;28;20053;-67
2023/01/18 05:53:51;;;;;;;16.00;5.05;;;;;;;-2.52;85.58;98620.31;5059828;28;20049;-67
2023/01/18 05:56:18;;;;;;;9.70;4.70;;;;;;;-2.54;85.37;98621.44;5060284;28;20045;-66
2023/01/18 05:58:45;;;;;;;15.23;5.50;;;;;;;-2.55;84.82;98620.56;5060012;28;20053;-68
2023/01/18 06:01:11;;;;;;;14.70;5.00;;;;;;;-2.59;84.84;98625.25;5059163;28;20051;-68
2023/01/18 06:03:39;;;;;;;15.98;4.93;;;;;;;-2.56;84.68;98637.28;5055946;28;20118;-67
2023/01/18 06:06:06;;;;;;;17.50;5.25;;;;;;;-2.56;84.76;98645.16;5059122;28;20072;-67
2023/01/18 06:08:32;;;;;;;21.65;5.10;;;;;;;-2.59;84.73;98643.63;5058210;28;20105;-66
2023/01/18 06:10:59;;;;;;;11.80;5.60;;;;;;;-2.55;84.37;98644.19;5059676;28;20072;-67
2023/01/18 06:13:29;;;;;;;12.38;5.53;;;;;;;-2.52;85.81;98640.50;5059703;28;20072;-67
2023/01/18 06:15:56;;;;;;;13.93;6.05;;;;;;;-2.55;85.50;98646.81;5059022;28;20045;-67
2023/01/18 06:18:25;;;;;;;13.95;6.32;;;;;;;-2.59;84.99;98659.38;5059889;28;20049;-67
2023/01/18 06:20:53;;;;;;;14.73;6.30;;;;;;;-2.53;84.88;98657.22;5059504;28;20056;-67
2023/01/18 06:23:20;;;;;;;19.63;6.47;;;;;;;-2.49;85.25;98656.81;5057923;28;20071;-66
2023/01/18 06:25:46;;;;;;;18.02;6.47;;;;;;;-2.57;84.69;98661.88;5059746;28;20049;-67
2023/01/18 06:28:13;;;;;;;16.70;5.88;;;;;;;-2.42;83.54;98655.34;5060018;28;20130;-66
2023/01/18 06:30:41;;;;;;;14.93;6.45;;;;;;;-2.44;82.09;98670.41;5069678;28;20053;-67
2023/01/18 06:33:09;;;;;;;13.50;5.85;;;;;;;-2.40;81.98;98668.38;5079598;28;20103;-67
2023/01/18 06:35:36;;;;;;;13.57;4.80;;;;;;;-2.48;82.78;98676.03;5079091;28;20048;-67
2023/01/18 06:38:03;;;;;;;13.65;5.45;;;;;;;-2.54;82.50;98672.13;5078896;28;20086;-67
2023/01/18 06:40:30;;;;;;;18.63;6.53;;;;;;;-2.56;82.70;98674.03;5079122;28;20064;-67
2023/01/18 06:42:56;;;;;;;10.93;4.63;;;;;;;-2.56;82.25;98679.28;5066489;28;20396;-68
2023/01/18 06:45:24;;;;;;;13.45;6.18;;;;;;;-2.55;82.64;98680.13;5064608;28;20052;-67
2023/01/18 06:47:52;;;;;;;13.55;5.72;;;;;;;-2.51;82.87;98682.38;5064784;28;20071;-67
2023/01/18 06:50:19;;;;;;;12.38;6.07;;;;;;;-2.53;82.33;98681.66;5063378;28;20049;-68
2023/01/18 06:52:45;;;;;;;14.50;6.13;;;;;;;-2.59;82.97;98687.41;5064970;28;20067;-68
2023/01/18 06:55:13;;;;;;;14.00;5.75;;;;;;;-2.56;82.84;98687.16;5063872;28;20049;-67
2023/01/18 06:57:40;;;;;;;17.80;5.57;;;;;;;-2.55;82.93;98686.19;5064633;28;20044;-67
2023/01/18 07:00:08;;;;;;;14.10;5.55;;;;;;;-2.49;82.26;98690.97;5065144;28;20060;-67
2023/01/18 07:02:35;;;;;;;13.48;5.53;;;;;;;-2.61;82.40;98694.59;5065690;28;20044;-69
2023/01/18 07:05:03;;;;;;;15.60;5.10;;;;;;;-2.59;82.26;98693.50;5067296;28;20049;-70
2023/01/18 07:07:29;;;;;;;15.25;5.75;;;;;;;-2.59;81.86;98692.66;5066417;28;20040;-69
2023/01/18 07:09:56;;;;;;;15.18;5.82;;;;;;;-2.60;81.43;98696.25;5065255;28;20546;-69
2023/01/18 07:12:22;;;;;;;17.20;6.03;;;;;;;-2.58;81.40;98697.81;5065261;28;20048;-69
2023/01/18 07:14:50;;;;;;;19.83;6.15;;;;;;;-2.66;82.75;98694.97;5064362;28;20504;-69
2023/01/18 07:17:16;;;;;;;14.13;5.50;;;;;;;-2.70;82.46;98703.22;5066735;28;20076;-69
2023/01/18 07:19:43;;;;;;;16.50;5.38;;;;;;;-2.62;82.20;98699.00;5067198;28;20059;-69
2023/01/18 07:22:11;;;;;;;16.48;5.22;;;;;;;-2.61;81.16;98702.47;5067834;28;20077;-70
2023/01/18 07:24:37;;;;;;;20.02;5.30;;;;;;;-2.62;81.29;98706.88;5067363;28;20134;-69
2023/01/18 07:27:04;;;;;;;13.23;4.82;;;;;;;-2.60;80.67;98709.38;5067394;28;20055;-69
2023/01/18 07:29:30;;;;;;;18.55;5.43;;;;;;;-2.65;81.30;98707.16;5068080;28;20065;-69
2023/01/18 07:31:57;;;;;;;25.20;4.65;;;;;;;-2.58;81.53;98716.19;5068096;28;20123;-69
2023/01/18 07:34:23;;;;;;;16.80;4.70;;;;;;;-2.54;80.16;98716.78;5068298;28;20053;-69
2023/01/18 07:36:50;;;;;;;16.05;5.18;;;;;;;-2.51;79.73;98713.03;5068924;28;20065;-69
2023/01/18 07:39:16;;;;;;;12.02;4.78;;;;;;;-2.45;79.38;98718.63;5070252;28;20041;-69
2023/01/18 07:41:43;;;;;;;15.70;4.60;;;;;;;-2.55;79.66;98725.59;5069729;28;20049;-69
2023/01/18 07:44:10;;;;;;;11.63;5.18;;;;;;;-2.51;78.77;98719.16;5069246;28;20053;-69
2023/01/18 07:46:37;;;;;;;17.13;4.60;;;;;;;-2.49;78.65;98722.47;5069809;28;20045;-69
2023/01/18 07:49:04;;;;;;;11.38;4.03;;;;;;;-2.47;78.13;98731.06;5068791;28;20064;-69
2023/01/18 07:51:32;;;;;;;15.75;5.00;;;;;;;-2.44;76.99;98722.94;5069492;28;20047;-69
2023/01/18 07:53:58;;;;;;;18.63;4.20;;;;;;;-2.53;77.90;98722.84;5068762;28;20922;-69
2023/01/18 07:56:26;;;;;;;13.10;4.40;;;;;;;-2.52;78.16;98722.72;5070158;28;20034;-69
2023/01/18 07:58:52;;;;;;;10.38;4.00;;;;;;;-2.46;77.35;98716.13;5069397;28;20052;-69
2023/01/18 08:01:21;;;;;;;22.75;4.50;;;;;;;-2.50;77.65;98710.31;5068949;28;20105;-69
2023/01/18 08:03:49;;;;;;;10.68;3.58;;;;;;;-2.49;78.10;98705.88;5068783;28;20044;-69
2023/01/18 08:06:21;;;;;;;13.80;5.20;;;;;;;-2.40;77.46;98705.97;5069295;28;20056;-69
2023/01/18 08:08:47;;;;;;;14.65;5.28;;;;;;;-2.36;77.83;98712.63;5069532;28;20048;-69
2023/01/18 08:11:14;;;;;;;17.20;5.88;;;;;;;-2.33;78.10;98720.25;5068152;28;20061;-69
2023/01/18 08:13:40;;;;;;;15.82;5.15;;;;;;;-2.37;78.25;98718.84;5066890;28;20120;-69
2023/01/18 08:16:10;;;;;;;18.38;5.07;;;;;;;-2.30;77.95;98718.31;5067799;28;20095;-69
2023/01/18 08:18:36;;;;;;;15.15;4.80;;;;;;;-2.31;78.46;98716.66;5067093;28;20049;-69
2023/01/18 08:21:03;;;;;;;12.13;4.93;;;;;;;-2.28;78.84;98729.53;5068846;28;20120;-69
2023/01/18 08:23:30;;;;;;;18.58;5.45;;;;;;;-2.16;77.97;98723.28;5069021;28;20484;-69
2023/01/18 08:26:00;;;;;;;10.85;4.65;;;;;;;-2.10;76.82;98728.84;5067183;28;20060;-70
2023/01/18 08:28:27;;;;;;;11.93;4.63;;;;;;;-2.17;77.07;98717.16;5066380;28;20044;-70
2023/01/18 08:31:08;;;;;;;15.57;4.95;;;;;;;-2.18;77.73;98725.19;5068267;28;20045;-69
2023/01/18 08:33:40;;;;;;;17.83;4.88;;;;;;;-2.09;77.59;98729.69;5066102;28;20101;-70
2023/01/18 08:36:10;;;;;;;;;;;;;;;-2.02;77.20;98730.81;5063796;28;20052;-70
2023/01/18 08:38:36;;;;;;;20.10;4.28;;;;;;;-2.08;76.88;98726.06;5059609;28;19920;-70
2023/01/18 08:41:03;;;;;;;16.10;3.85;;;;;;;-2.01;76.58;98735.09;5067124;28;20055;-70
2023/01/18 08:43:30;;;;;;;11.25;3.33;;;;;;;-2.00;76.33;98735.94;5066775;28;20047;-70
2023/01/18 08:45:56;;;;;;;17.38;3.80;;;;;;;-2.00;76.37;98744.66;5066837;28;20543;-70
2023/01/18 08:48:23;;;;;;;11.02;3.72;;;;;;;-1.94;75.95;98741.50;5067152;28;20045;-70
2023/01/18 08:50:50;;;;;;;20.20;3.85;;;;;;;-1.89;76.10;98741.97;5067956;28;20072;-70
2023/01/18 08:53:17;;;;;;;15.50;4.13;;;;;;;-1.89;76.02;98741.97;5068235;28;20071;-70
2023/01/18 08:55:43;;;;;;;17.00;4.22;;;;;;;-1.88;75.81;98742.81;5068062;28;20113;-70
2023/01/18 08:58:10;;;;;;;17.90;4.03;;;;;;;-1.84;75.76;98743.38;5067510;28;20041;-70
2023/01/18 09:00:37;;;;;;;13.10;3.60;;;;;;;-1.76;75.08;98748.81;5069023;28;20494;-70
2023/01/18 09:03:05;;;;;;;10.95;4.05;;;;;;;-1.70;74.92;98756.19;5068688;28;20058;-70
2023/01/18 09:05:34;;;;;;;9.35;3.90;;;;;;;-1.70;74.79;98751.75;5066326;28;20044;-70
2023/01/18 09:08:00;;;;;;;14.40;4.35;;;;;;;-1.69;74.43;98753.41;5067414;28;20061;-69
2023/01/18 09:10:27;;;;;;;9.35;3.80;;;;;;;-1.69;74.35;98755.22;5068245;28;20075;-70
2023/01/18 09:12:54;;;;;;;13.65;4.40;;;;;;;-1.71;74.41;98751.91;5066282;28;20079;-70
2023/01/18 09:15:21;;;;;;;14.15;4.53;;;;;;;-1.73;74.27;98751.19;5066003;28;20060;-70
2023/01/18 09:17:47;;;;;;;13.88;4.93;;;;;;;-1.68;74.68;98759.50;5064197;28;20079;-70
2023/01/18 09:20:14;;;;;;;13.45;5.30;;;;;;;-1.72;74.85;98765.97;5063991;28;20108;-70
2023/01/18 09:22:46;;;;;;;16.50;4.18;;;;;;;-1.64;74.33;98766.19;5063466;28;20048;-70
2023/01/18 09:25:13;;;;;;;14.50;4.30;;;;;;;-1.62;74.47;98764.25;5062481;28;20094;-70
2023/01/18 09:27:39;;;;;;;12.35;4.75;;;;;;;-1.66;74.93;98768.09;5063832;28;20061;-70
2023/01/18 09:30:08;;;;;;;10.20;4.75;;;;;;;-1.61;74.63;98771.19;5061234;28;20049;-70
2023/01/18 09:32:34;;;;;;;12.00;4.53;;;;;;;-1.55;74.34;98772.44;5066255;28;20049;-70
2023/01/18 09:35:01;;;;;;;11.55;5.13;;;;;;;-1.49;74.05;98774.56;5064238;28;20105;-69
2023/01/18 09:37:28;;;;;;;17.98;4.32;;;;;;;-1.36;73.66;98771.72;5062630;28;20076;-69
2023/01/18 09:39:54;;;;;;;22.05;4.57;;;;;;;-1.29;72.99;98776.31;5063609;28;20143;-69
2023/01/18 09:42:28;;;;;;;15.02;4.82;;;;;;;-1.42;72.69;98781.78;5063918;28;20045;-70
2023/01/18 09:44:59;;;;;;;13.15;4.15;;;;;;;-1.30;72.44;98785.19;5063872;28;20116;-70
2023/01/18 09:47:29;;;;;;;16.30;4.55;;;;;;;-1.28;71.89;98785.03;5061509;28;20071;-69
2023/01/18 09:49:58;;;;;;;21.00;4.82;;;;;;;-1.25;71.91;98782.97;5063355;28;20160;-70
2023/01/18 09:52:50;;;;;;;16.10;4.28;;;;;;;-1.07;71.30;98783.16;5063586;28;20045;-70
2023/01/18 09:55:41;;;;;;;14.77;4.38;;;;;;;-1.04;71.66;98779.44;5063757;28;20057;-70
2023/01/18 09:58:18;;;;;;;9.63;3.85;;;;;;;-0.91;71.56;98782.69;5064585;28;20129;-70
2023/01/18 10:00:47;;;;;;;20.52;4.95;;;;;;;-0.96;70.87;98783.06;5064820;28;20049;-69
2023/01/18 10:03:27;;;;;;;17.48;5.35;;;;;;;-0.84;70.19;98781.16;5063183;28;20421;-70
2023/01/18 10:06:07;;;;;;;17.83;5.97;;;;;;;-0.79;70.41;98778.94;5043848;28;20136;-69
2023/01/18 10:08:58;;;;;;;20.05;4.38;;;;;;;-0.67;69.82;98783.16;5046441;28;20045;-70
2023/01/18 10:11:49;;;;;;;16.63;4.47;;;;;;;-0.57;69.56;98783.16;5045508;28;20045;-70
2023/01/18 10:14:39;;;;;;;10.03;3.60;;;;;;;-0.54;69.46;98787.31;5043601;28;20064;-70
2023/01/18 10:17:13;;;;;;;14.40;5.20;;;;;;;-0.58;69.55;98781.47;5044556;28;20045;-69
2023/01/18 10:19:40;;;;;;;10.82;5.07;;;;;;;-0.73;69.80;98777.59;5049040;28;20093;-70
2023/01/18 10:22:32;;;;;;;16.02;4.50;;;;;;;-0.47;69.01;98783.16;5048799;28;20049;-70
2023/01/18 10:25:04;;;;;;;15.10;4.53;;;;;;;-0.42;68.69;98786.22;5046210;28;20065;-69
2023/01/18 10:28:11;;;;;;;13.88;5.15;;;;;;;-0.46;69.05;98777.78;5046481;28;20045;-70
2023/01/18 10:30:57;;;;;;;20.33;5.18;;;;;;;-0.38;68.50;98786.78;5037091;28;20049;-69
2023/01/18 10:33:32;;;;;;;18.38;4.93;;;;;;;-0.38;68.92;98781.50;5047038;28;20041;-70
2023/01/18 10:36:20;;;;;;;15.50;4.93;;;;;;;-0.32;67.94;98789.69;5045288;28;20049;-69
2023/01/18 10:38:51;;;;;;;19.88;6.13;;;;;;;-0.52;69.66;98788.84;5046960;28;20046;-70
2023/01/18 10:41:20;;;;;;;12.52;4.68;;;;;;;-0.56;70.25;98786.63;5047520;28;20125;-70
2023/01/18 10:43:47;;;;;;;24.10;6.05;;;;;;;-0.67;70.64;98792.84;5050311;28;20112;-69
2023/01/18 10:46:17;;;;;;;22.73;5.90;;;;;;;-0.64;70.40;98792.59;5049682;28;20030;-70
2023/01/18 10:48:52;;;;;;;17.33;5.03;;;;;;;-0.66;70.36;98794.50;5051395;28;20053;-70
2023/01/18 10:51:36;;;;;;;9.85;4.70;;;;;;;-0.64;69.97;98792.59;5049084;28;20061;-70
2023/01/18 10:54:25;;;;;;;20.80;5.40;;;;;;;-0.52;69.52;98796.75;5048407;28;20029;-70
2023/01/18 10:57:03;;;;;;;14.80;4.72;;;;;;;-0.64;70.54;98797.84;5049035;28;20048;-70
2023/01/18 10:59:38;;;;;;;19.63;5.68;;;;;;;-0.64;70.69;98802.25;5048318;28;20056;-71
2023/01/18 11:02:19;;;;;;;15.10;5.13;;;;;;;-0.64;70.62;98803.13;5049598;28;20096;-70
2023/01/18 11:04:55;;;;;;;18.73;5.70;;;;;;;-0.60;70.12;98798.41;5059517;28;20049;-70
2023/01/18 11:07:24;;;;;;;12.77;4.88;;;;;;;-0.54;69.91;98796.03;5069197;28;20051;-70
2023/01/18 11:09:54;;;;;;;21.88;4.95;;;;;;;-0.66;70.87;98805.03;5069164;28;20068;-70
2023/01/18 11:12:35;;;;;;;17.73;5.10;;;;;;;-0.72;71.22;98795.88;5068604;28;20493;-70
2023/01/18 11:15:14;;;;;;;17.02;5.75;;;;;;;-0.65;71.54;98801.44;5071248;28;20049;-70
2023/01/18 11:17:57;;;;;;;22.25;6.85;;;;;;;-0.61;71.02;98808.09;5070421;28;20452;-70
2023/01/18 11:20:29;;;;;;;31.10;6.05;;;;;;;-0.59;71.78;98806.16;5070612;28;20049;-70
2023/01/18 11:22:59;;;;;;;14.55;4.72;;;;;;;-0.66;74.00;98808.50;5069412;28;20055;-69
2023/01/18 11:25:36;;;;;;;17.50;5.00;;;;;;;-0.46;76.07;98812.00;5070214;28;20048;-69
2023/01/18 11:28:06;;;;;;;16.10;6.43;;;;;;;-0.38;72.88;98808.69;5069683;28;20109;-69
2023/01/18 11:30:33;;;;;;;14.95;5.35;;;;;;;-0.55;72.50;98806.72;5069887;28;20108;-69
2023/01/18 11:33:00;;;;;;;16.35;5.80;;;;;;;-0.61;72.39;98807.25;5070958;28;20424;-70
2023/01/18 11:35:32;;;;;;;16.25;5.75;;;;;;;-0.57;72.60;98817.41;5069171;28;20041;-69
2023/01/18 11:38:01;;;;;;;16.55;5.75;;;;;;;-0.54;73.49;98817.09;5068932;28;20052;-69
2023/01/18 11:40:31;;;;;;;26.95;5.78;;;;;;;-0.59;73.08;98824.59;5069994;28;20044;-69
2023/01/18 11:43:03;;;;;;;19.90;5.55;;;;;;;-0.67;73.03;98825.28;5068299;28;20132;-69
2023/01/18 11:45:39;;;;;;;17.60;5.68;;;;;;;-0.59;72.38;98821.13;5066787;28;20559;-70
2023/01/18 11:48:12;;;;;;;13.95;5.47;;;;;;;-0.62;72.37;98826.66;5067958;28;20490;-70
2023/01/18 11:50:53;;;;;;;16.65;5.80;;;;;;;-0.61;72.30;98820.44;5065451;28;20409;-69
2023/01/18 11:54:00;;;;;;;22.25;5.22;;;;;;;-0.54;72.22;98830.28;5067065;28;20064;-69
2023/01/18 11:56:41;;;;;;;12.05;4.82;;;;;;;-0.49;71.82;98822.81;5066899;28;20120;-69
2023/01/18 11:59:16;;;;;;;16.17;5.78;;;;;;;-0.59;72.35;98826.41;5068844;28;20024;-69
2023/01/18 12:01:55;;;;;;;14.57;5.28;;;;;;;-0.50;72.03;98825.59;5067310;28;20055;-69
2023/01/18 12:04:38;;;;;;;21.13;5.40;;;;;;;-0.60;71.80;98825.56;5067128;28;20088;-69
2023/01/18 12:07:31;;;;;;;18.17;6.10;;;;;;;-0.70;72.11;98829.97;5068739;28;20059;-69
2023/01/18 12:10:00;;;;;;;14.40;5.13;;;;;;;-0.81;72.65;98830.09;5066244;28;20071;-69
2023/01/18 12:12:54;;;;;;;16.27;4.97;;;;;;;-0.80;71.98;98839.66;5069306;28;20111;-69
2023/01/18 12:16:00;;;;;;;11.07;5.05;;;;;;;-0.73;71.60;98843.41;5067560;28;20075;-69
2023/01/18 12:18:46;;;;;;;16.55;5.80;;;;;;;-0.90;71.58;98845.72;5066758;28;20041;-69
2023/01/18 12:21:23;;;;;;;21.83;5.60;;;;;;;-0.91;71.60;98851.13;5067663;28;20044;-69